RNP weather

Owosso Community Airport
Owosso, Michigan, United States

Public forecast

Using degrees Fahrenheit for public forecast. Weather courtesy of forecast.io.

METAR (pilot weather report)

Retrieved 2019/05/21 11:16 UTC (0 seconds ago):

KRNP 211116Z AUTO 00000KT 10SM CLR 05/05 A3017 RMK AO2

TAF (pilot weather forecast)

Closest forecast is Bishop International Airport, 17.4 nm (32.3 km) E. Retrieved 2019/05/21 06:22 UTC (5 hours ago):

TAF KFNT 210520Z 2106/2206 35004KT P6SM SCT250 FM211300 05009KT P6SM FEW040 SCT250 FM211800 09008KT P6SM SCT100 OVC150 FM220000 07005KT P6SM OVC100